sensor_id;sensor_type;location;lat;lon;timestamp;temperature;humidity
54832;DHT22;40730;53.068;6.572;2024-02-21T00:02:07;9.50;99.90
54832;DHT22;40730;53.068;6.572;2024-02-21T00:04:33;9.50;99.90
54832;DHT22;40730;53.068;6.572;2024-02-21T00:06:59;9.50;99.90
54832;DHT22;40730;53.068;6.572;2024-02-21T00:09:24;9.50;99.90
54832;DHT22;40730;53.068;6.572;2024-02-21T00:11:50;9.50;99.90
54832;DHT22;40730;53.068;6.572;2024-02-21T00:14:15;9.40;99.90
54832;DHT22;40730;53.068;6.572;2024-02-21T00:16:41;9.40;99.90
54832;DHT22;40730;53.068;6.572;2024-02-21T00:19:07;9.40;99.90
54832;DHT22;40730;53.068;6.572;2024-02-21T00:21:32;9.40;99.90
54832;DHT22;40730;53.068;6.572;2024-02-21T00:23:58;9.40;99.90
54832;DHT22;40730;53.068;6.572;2024-02-21T00:26:24;9.40;99.90
54832;DHT22;40730;53.068;6.572;2024-02-21T00:28:51;9.30;99.90
54832;DHT22;40730;53.068;6.572;2024-02-21T00:31:16;9.30;99.90
54832;DHT22;40730;53.068;6.572;2024-02-21T00:33:42;9.30;99.90
54832;DHT22;40730;53.068;6.572;2024-02-21T00:36:08;9.30;99.90
54832;DHT22;40730;53.068;6.572;2024-02-21T00:38:33;9.50;99.90
54832;DHT22;40730;53.068;6.572;2024-02-21T00:40:59;9.30;99.90
54832;DHT22;40730;53.068;6.572;2024-02-21T00:43:24;9.60;99.90
54832;DHT22;40730;53.068;6.572;2024-02-21T00:45:50;9.30;99.90
54832;DHT22;40730;53.068;6.572;2024-02-21T00:48:16;9.10;99.90
54832;DHT22;40730;53.068;6.572;2024-02-21T00:50:41;9.30;99.90
54832;DHT22;40730;53.068;6.572;2024-02-21T00:53:07;9.30;99.90
54832;DHT22;40730;53.068;6.572;2024-02-21T00:55:33;9.30;99.90
54832;DHT22;40730;53.068;6.572;2024-02-21T00:57:59;9.20;99.90
54832;DHT22;40730;53.068;6.572;2024-02-21T01:00:25;9.20;99.90
54832;DHT22;40730;53.068;6.572;2024-02-21T01:02:50;9.20;99.90
54832;DHT22;40730;53.068;6.572;2024-02-21T01:05:16;9.20;99.90
54832;DHT22;40730;53.068;6.572;2024-02-21T01:07:41;9.10;99.90
54832;DHT22;40730;53.068;6.572;2024-02-21T01:10:07;9.10;99.90
54832;DHT22;40730;53.068;6.572;2024-02-21T01:12:33;9.10;99.90
54832;DHT22;40730;53.068;6.572;2024-02-21T01:14:59;9.10;99.90
54832;DHT22;40730;53.068;6.572;2024-02-21T01:17:24;9.10;99.90
54832;DHT22;40730;53.068;6.572;2024-02-21T01:19:50;9.10;99.90
54832;DHT22;40730;53.068;6.572;2024-02-21T01:22:15;9.10;99.90
54832;DHT22;40730;53.068;6.572;2024-02-21T01:24:41;9.10;99.90
54832;DHT22;40730;53.068;6.572;2024-02-21T01:27:07;9.10;99.90
54832;DHT22;40730;53.068;6.572;2024-02-21T01:29:33;9.10;99.90
54832;DHT22;40730;53.068;6.572;2024-02-21T01:31:58;9.10;99.90
54832;DHT22;40730;53.068;6.572;2024-02-21T01:34:24;9.20;99.90
54832;DHT22;40730;53.068;6.572;2024-02-21T01:36:49;9.10;99.90
54832;DHT22;40730;53.068;6.572;2024-02-21T01:39:15;9.20;99.90
54832;DHT22;40730;53.068;6.572;2024-02-21T01:41:41;9.10;99.90
54832;DHT22;40730;53.068;6.572;2024-02-21T01:44:07;9.10;99.90
54832;DHT22;40730;53.068;6.572;2024-02-21T01:46:32;9.00;99.90
54832;DHT22;40730;53.068;6.572;2024-02-21T01:48:58;9.00;99.90
54832;DHT22;40730;53.068;6.572;2024-02-21T01:51:25;8.90;99.90
54832;DHT22;40730;53.068;6.572;2024-02-21T01:53:51;8.90;99.90
54832;DHT22;40730;53.068;6.572;2024-02-21T01:56:17;8.90;99.90
54832;DHT22;40730;53.068;6.572;2024-02-21T01:58:44;8.90;99.90
54832;DHT22;40730;53.068;6.572;2024-02-21T02:01:10;8.80;99.90
54832;DHT22;40730;53.068;6.572;2024-02-21T02:03:36;8.80;99.90
54832;DHT22;40730;53.068;6.572;2024-02-21T02:06:03;8.80;99.90
54832;DHT22;40730;53.068;6.572;2024-02-21T02:08:30;8.80;99.90
54832;DHT22;40730;53.068;6.572;2024-02-21T02:10:57;8.80;99.90
54832;DHT22;40730;53.068;6.572;2024-02-21T02:13:22;8.80;99.90
54832;DHT22;40730;53.068;6.572;2024-02-21T02:15:49;8.80;99.90
54832;DHT22;40730;53.068;6.572;2024-02-21T02:18:16;8.80;99.90
54832;DHT22;40730;53.068;6.572;2024-02-21T02:20:44;8.80;99.90
54832;DHT22;40730;53.068;6.572;2024-02-21T02:23:26;8.80;99.90
54832;DHT22;40730;53.068;6.572;2024-02-21T02:25:53;8.80;99.90
54832;DHT22;40730;53.068;6.572;2024-02-21T02:28:19;8.80;99.90
54832;DHT22;40730;53.068;6.572;2024-02-21T02:30:45;8.80;99.90
54832;DHT22;40730;53.068;6.572;2024-02-21T02:33:11;8.80;99.90
54832;DHT22;40730;53.068;6.572;2024-02-21T02:35:36;8.80;99.90
54832;DHT22;40730;53.068;6.572;2024-02-21T02:38:03;8.80;99.90
54832;DHT22;40730;53.068;6.572;2024-02-21T02:40:29;8.80;99.90
54832;DHT22;40730;53.068;6.572;2024-02-21T02:42:55;8.80;99.90
54832;DHT22;40730;53.068;6.572;2024-02-21T02:45:21;8.80;99.90
54832;DHT22;40730;53.068;6.572;2024-02-21T02:47:52;8.80;99.90
54832;DHT22;40730;53.068;6.572;2024-02-21T02:50:19;8.80;99.90
54832;DHT22;40730;53.068;6.572;2024-02-21T02:52:45;8.80;99.90
54832;DHT22;40730;53.068;6.572;2024-02-21T02:55:11;8.80;99.90
54832;DHT22;40730;53.068;6.572;2024-02-21T02:57:36;9.20;99.90
54832;DHT22;40730;53.068;6.572;2024-02-21T03:00:02;8.80;99.90
54832;DHT22;40730;53.068;6.572;2024-02-21T03:02:28;8.80;99.90
54832;DHT22;40730;53.068;6.572;2024-02-21T03:04:53;8.80;99.90
54832;DHT22;40730;53.068;6.572;2024-02-21T03:07:20;8.80;99.90
54832;DHT22;40730;53.068;6.572;2024-02-21T03:09:46;8.80;99.90
54832;DHT22;40730;53.068;6.572;2024-02-21T03:12:11;8.80;99.90
54832;DHT22;40730;53.068;6.572;2024-02-21T03:14:37;8.70;99.90
54832;DHT22;40730;53.068;6.572;2024-02-21T03:17:03;8.70;99.90
54832;DHT22;40730;53.068;6.572;2024-02-21T03:19:30;8.90;99.90
54832;DHT22;40730;53.068;6.572;2024-02-21T03:21:55;8.80;99.90
54832;DHT22;40730;53.068;6.572;2024-02-21T03:24:21;8.80;99.90
54832;DHT22;40730;53.068;6.572;2024-02-21T03:26:47;8.80;99.90
54832;DHT22;40730;53.068;6.572;2024-02-21T03:29:15;8.80;99.90
54832;DHT22;40730;53.068;6.572;2024-02-21T03:31:41;8.80;99.90
54832;DHT22;40730;53.068;6.572;2024-02-21T03:34:07;8.80;99.90
54832;DHT22;40730;53.068;6.572;2024-02-21T03:36:32;8.80;99.90
54832;DHT22;40730;53.068;6.572;2024-02-21T03:38:58;8.80;99.90
54832;DHT22;40730;53.068;6.572;2024-02-21T03:41:24;8.80;99.90
54832;DHT22;40730;53.068;6.572;2024-02-21T03:43:49;8.80;99.90
54832;DHT22;40730;53.068;6.572;2024-02-21T03:46:15;8.80;99.90
54832;DHT22;40730;53.068;6.572;2024-02-21T03:48:41;8.80;99.90
54832;DHT22;40730;53.068;6.572;2024-02-21T03:51:06;8.80;99.90
54832;DHT22;40730;53.068;6.572;2024-02-21T03:53:32;8.80;99.90
54832;DHT22;40730;53.068;6.572;2024-02-21T03:56:01;8.80;99.90
54832;DHT22;40730;53.068;6.572;2024-02-21T03:58:28;8.80;99.90
54832;DHT22;40730;53.068;6.572;2024-02-21T04:00:54;8.80;99.90
54832;DHT22;40730;53.068;6.572;2024-02-21T04:03:19;8.80;99.90
54832;DHT22;40730;53.068;6.572;2024-02-21T04:05:45;8.70;99.90
54832;DHT22;40730;53.068;6.572;2024-02-21T04:08:12;8.70;99.90
54832;DHT22;40730;53.068;6.572;2024-02-21T04:10:37;8.80;99.90
54832;DHT22;40730;53.068;6.572;2024-02-21T04:13:04;8.70;99.90
54832;DHT22;40730;53.068;6.572;2024-02-21T04:15:30;8.80;99.90
54832;DHT22;40730;53.068;6.572;2024-02-21T04:17:55;8.70;99.90
54832;DHT22;40730;53.068;6.572;2024-02-21T04:20:21;8.70;99.90
54832;DHT22;40730;53.068;6.572;2024-02-21T04:22:47;8.70;99.90
54832;DHT22;40730;53.068;6.572;2024-02-21T04:25:13;8.70;99.90
54832;DHT22;40730;53.068;6.572;2024-02-21T04:27:39;8.70;99.90
54832;DHT22;40730;53.068;6.572;2024-02-21T04:30:05;8.70;99.90
54832;DHT22;40730;53.068;6.572;2024-02-21T04:32:31;8.80;99.90
54832;DHT22;40730;53.068;6.572;2024-02-21T04:34:57;8.70;99.90
54832;DHT22;40730;53.068;6.572;2024-02-21T04:37:23;8.70;99.90
54832;DHT22;40730;53.068;6.572;2024-02-21T04:39:49;8.80;99.90
54832;DHT22;40730;53.068;6.572;2024-02-21T04:42:15;8.80;99.90
54832;DHT22;40730;53.068;6.572;2024-02-21T04:44:41;8.70;99.90
54832;DHT22;40730;53.068;6.572;2024-02-21T04:47:06;8.80;99.90
54832;DHT22;40730;53.068;6.572;2024-02-21T04:49:32;8.80;99.90
54832;DHT22;40730;53.068;6.572;2024-02-21T04:51:58;8.80;99.90
54832;DHT22;40730;53.068;6.572;2024-02-21T04:54:23;8.70;99.90
54832;DHT22;40730;53.068;6.572;2024-02-21T04:56:49;8.80;99.90
54832;DHT22;40730;53.068;6.572;2024-02-21T04:59:15;8.80;99.90
54832;DHT22;40730;53.068;6.572;2024-02-21T05:01:41;8.90;99.90
54832;DHT22;40730;53.068;6.572;2024-02-21T05:04:06;8.80;99.90
54832;DHT22;40730;53.068;6.572;2024-02-21T05:06:37;8.80;99.90
54832;DHT22;40730;53.068;6.572;2024-02-21T05:09:04;8.80;99.90
54832;DHT22;40730;53.068;6.572;2024-02-21T05:11:30;8.80;99.90
54832;DHT22;40730;53.068;6.572;2024-02-21T05:13:56;8.80;99.90
54832;DHT22;40730;53.068;6.572;2024-02-21T05:16:21;8.80;99.90
54832;DHT22;40730;53.068;6.572;2024-02-21T05:18:47;8.70;99.90
54832;DHT22;40730;53.068;6.572;2024-02-21T05:21:13;8.70;99.90
54832;DHT22;40730;53.068;6.572;2024-02-21T05:23:38;8.80;99.90
54832;DHT22;40730;53.068;6.572;2024-02-21T05:26:08;8.80;99.90
54832;DHT22;40730;53.068;6.572;2024-02-21T05:28:34;8.80;99.90
54832;DHT22;40730;53.068;6.572;2024-02-21T05:30:59;8.80;99.90
54832;DHT22;40730;53.068;6.572;2024-02-21T05:33:25;8.90;99.90
54832;DHT22;40730;53.068;6.572;2024-02-21T05:35:51;8.80;99.90
54832;DHT22;40730;53.068;6.572;2024-02-21T05:38:16;8.80;99.90
54832;DHT22;40730;53.068;6.572;2024-02-21T05:40:42;8.80;99.90
54832;DHT22;40730;53.068;6.572;2024-02-21T05:43:08;8.90;99.90
54832;DHT22;40730;53.068;6.572;2024-02-21T05:45:34;8.80;99.90
54832;DHT22;40730;53.068;6.572;2024-02-21T05:48:00;8.80;99.90
54832;DHT22;40730;53.068;6.572;2024-02-21T05:50:26;8.80;99.90
54832;DHT22;40730;53.068;6.572;2024-02-21T05:52:54;8.80;99.90
54832;DHT22;40730;53.068;6.572;2024-02-21T05:55:21;8.80;99.90
54832;DHT22;40730;53.068;6.572;2024-02-21T05:57:47;8.80;99.90
54832;DHT22;40730;53.068;6.572;2024-02-21T06:00:14;8.70;99.90
54832;DHT22;40730;53.068;6.572;2024-02-21T06:02:40;8.70;99.90
54832;DHT22;40730;53.068;6.572;2024-02-21T06:05:06;8.80;99.90
54832;DHT22;40730;53.068;6.572;2024-02-21T06:07:35;8.70;99.90
54832;DHT22;40730;53.068;6.572;2024-02-21T06:10:04;8.70;99.90
54832;DHT22;40730;53.068;6.572;2024-02-21T06:12:30;8.70;99.90
54832;DHT22;40730;53.068;6.572;2024-02-21T06:14:55;8.70;99.90
54832;DHT22;40730;53.068;6.572;2024-02-21T06:17:21;8.70;99.90
54832;DHT22;40730;53.068;6.572;2024-02-21T06:19:46;8.70;99.90
54832;DHT22;40730;53.068;6.572;2024-02-21T06:22:12;8.70;99.90
54832;DHT22;40730;53.068;6.572;2024-02-21T06:24:38;8.80;99.90
54832;DHT22;40730;53.068;6.572;2024-02-21T06:27:04;8.80;99.90
54832;DHT22;40730;53.068;6.572;2024-02-21T06:29:33;8.70;99.90
54832;DHT22;40730;53.068;6.572;2024-02-21T06:31:59;8.70;99.90
54832;DHT22;40730;53.068;6.572;2024-02-21T06:34:25;8.70;99.90
54832;DHT22;40730;53.068;6.572;2024-02-21T06:36:51;8.70;99.90
54832;DHT22;40730;53.068;6.572;2024-02-21T06:39:16;8.70;99.90
54832;DHT22;40730;53.068;6.572;2024-02-21T06:41:42;8.70;99.90
54832;DHT22;40730;53.068;6.572;2024-02-21T06:44:08;8.70;99.90
54832;DHT22;40730;53.068;6.572;2024-02-21T06:46:34;8.80;99.90
54832;DHT22;40730;53.068;6.572;2024-02-21T06:49:00;8.80;99.90
54832;DHT22;40730;53.068;6.572;2024-02-21T06:51:26;9.00;99.90
54832;DHT22;40730;53.068;6.572;2024-02-21T06:53:53;8.80;99.90
54832;DHT22;40730;53.068;6.572;2024-02-21T06:56:18;8.80;99.90
54832;DHT22;40730;53.068;6.572;2024-02-21T06:58:44;8.80;99.90
54832;DHT22;40730;53.068;6.572;2024-02-21T07:01:10;8.80;99.90
54832;DHT22;40730;53.068;6.572;2024-02-21T07:03:36;8.80;99.90
54832;DHT22;40730;53.068;6.572;2024-02-21T07:06:02;8.80;99.90
54832;DHT22;40730;53.068;6.572;2024-02-21T07:08:27;8.80;99.90
54832;DHT22;40730;53.068;6.572;2024-02-21T07:10:53;8.80;99.90
54832;DHT22;40730;53.068;6.572;2024-02-21T07:13:19;9.00;99.90
54832;DHT22;40730;53.068;6.572;2024-02-21T07:15:44;8.90;99.90
54832;DHT22;40730;53.068;6.572;2024-02-21T07:18:10;8.80;99.90
54832;DHT22;40730;53.068;6.572;2024-02-21T07:20:35;8.80;99.90
54832;DHT22;40730;53.068;6.572;2024-02-21T07:23:06;8.90;99.90
54832;DHT22;40730;53.068;6.572;2024-02-21T07:25:32;8.80;99.90
54832;DHT22;40730;53.068;6.572;2024-02-21T07:27:58;8.90;99.90
54832;DHT22;40730;53.068;6.572;2024-02-21T07:30:23;8.80;99.90
54832;DHT22;40730;53.068;6.572;2024-02-21T07:32:50;8.80;99.90
54832;DHT22;40730;53.068;6.572;2024-02-21T07:35:17;8.80;99.90
54832;DHT22;40730;53.068;6.572;2024-02-21T07:37:42;8.80;99.90
54832;DHT22;40730;53.068;6.572;2024-02-21T07:40:15;8.80;99.90
54832;DHT22;40730;53.068;6.572;2024-02-21T07:42:41;8.80;99.90
54832;DHT22;40730;53.068;6.572;2024-02-21T07:45:08;8.80;99.90
54832;DHT22;40730;53.068;6.572;2024-02-21T07:47:34;8.90;99.90
54832;DHT22;40730;53.068;6.572;2024-02-21T07:50:00;8.90;99.90
54832;DHT22;40730;53.068;6.572;2024-02-21T07:52:25;8.90;99.90
54832;DHT22;40730;53.068;6.572;2024-02-21T07:54:51;8.90;99.90
54832;DHT22;40730;53.068;6.572;2024-02-21T07:57:16;8.90;99.90
54832;DHT22;40730;53.068;6.572;2024-02-21T07:59:42;8.90;99.90
54832;DHT22;40730;53.068;6.572;2024-02-21T08:02:08;9.00;99.90
54832;DHT22;40730;53.068;6.572;2024-02-21T08:04:34;9.00;99.90
54832;DHT22;40730;53.068;6.572;2024-02-21T08:07:00;8.90;99.90
54832;DHT22;40730;53.068;6.572;2024-02-21T08:09:28;9.00;99.90
54832;DHT22;40730;53.068;6.572;2024-02-21T08:11:54;8.90;99.90
54832;DHT22;40730;53.068;6.572;2024-02-21T08:14:21;8.90;99.90
54832;DHT22;40730;53.068;6.572;2024-02-21T08:16:46;8.90;99.90
54832;DHT22;40730;53.068;6.572;2024-02-21T08:19:12;8.90;99.90
54832;DHT22;40730;53.068;6.572;2024-02-21T08:21:37;8.90;99.90
54832;DHT22;40730;53.068;6.572;2024-02-21T08:24:03;8.90;99.90
54832;DHT22;40730;53.068;6.572;2024-02-21T08:26:29;8.90;99.90
54832;DHT22;40730;53.068;6.572;2024-02-21T08:28:56;8.90;99.90
54832;DHT22;40730;53.068;6.572;2024-02-21T08:31:25;8.90;99.90
54832;DHT22;40730;53.068;6.572;2024-02-21T08:33:57;8.90;99.90
54832;DHT22;40730;53.068;6.572;2024-02-21T08:36:28;8.90;99.90
54832;DHT22;40730;53.068;6.572;2024-02-21T08:38:54;8.90;99.90
54832;DHT22;40730;53.068;6.572;2024-02-21T08:41:20;9.00;99.90
54832;DHT22;40730;53.068;6.572;2024-02-21T08:43:48;9.00;99.90
54832;DHT22;40730;53.068;6.572;2024-02-21T08:46:14;8.90;99.90
54832;DHT22;40730;53.068;6.572;2024-02-21T08:48:40;8.90;99.90
54832;DHT22;40730;53.068;6.572;2024-02-21T08:51:06;9.00;99.90
54832;DHT22;40730;53.068;6.572;2024-02-21T08:53:31;9.00;99.90
54832;DHT22;40730;53.068;6.572;2024-02-21T08:55:57;8.90;99.90
54832;DHT22;40730;53.068;6.572;2024-02-21T08:58:24;9.00;99.90
54832;DHT22;40730;53.068;6.572;2024-02-21T09:00:52;9.00;99.90
54832;DHT22;40730;53.068;6.572;2024-02-21T09:03:17;9.00;99.90
54832;DHT22;40730;53.068;6.572;2024-02-21T09:05:45;9.00;99.90
54832;DHT22;40730;53.068;6.572;2024-02-21T09:08:11;9.00;99.90
54832;DHT22;40730;53.068;6.572;2024-02-21T09:10:36;9.00;99.90
54832;DHT22;40730;53.068;6.572;2024-02-21T09:13:02;9.00;99.90
54832;DHT22;40730;53.068;6.572;2024-02-21T09:15:29;9.00;99.90
54832;DHT22;40730;53.068;6.572;2024-02-21T09:17:54;9.00;99.90
54832;DHT22;40730;53.068;6.572;2024-02-21T09:20:20;9.00;99.90
54832;DHT22;40730;53.068;6.572;2024-02-21T09:22:45;9.00;99.90
54832;DHT22;40730;53.068;6.572;2024-02-21T09:25:11;9.00;99.90
54832;DHT22;40730;53.068;6.572;2024-02-21T09:27:38;9.10;99.90
54832;DHT22;40730;53.068;6.572;2024-02-21T09:30:04;9.00;99.90
54832;DHT22;40730;53.068;6.572;2024-02-21T09:32:30;9.00;99.90
54832;DHT22;40730;53.068;6.572;2024-02-21T09:34:58;9.00;99.90
54832;DHT22;40730;53.068;6.572;2024-02-21T09:37:24;9.00;99.90
54832;DHT22;40730;53.068;6.572;2024-02-21T09:39:49;9.00;99.90
54832;DHT22;40730;53.068;6.572;2024-02-21T09:42:20;9.00;99.90
54832;DHT22;40730;53.068;6.572;2024-02-21T09:44:46;9.00;99.90
54832;DHT22;40730;53.068;6.572;2024-02-21T09:47:22;9.00;99.90
54832;DHT22;40730;53.068;6.572;2024-02-21T09:49:48;9.10;99.90
54832;DHT22;40730;53.068;6.572;2024-02-21T09:52:15;9.00;99.90
54832;DHT22;40730;53.068;6.572;2024-02-21T09:54:42;9.00;99.90
54832;DHT22;40730;53.068;6.572;2024-02-21T09:57:10;9.00;99.90
54832;DHT22;40730;53.068;6.572;2024-02-21T09:59:37;9.00;99.90
54832;DHT22;40730;53.068;6.572;2024-02-21T10:02:03;9.00;99.90
54832;DHT22;40730;53.068;6.572;2024-02-21T10:04:30;9.10;99.90
54832;DHT22;40730;53.068;6.572;2024-02-21T10:06:56;9.10;99.90
54832;DHT22;40730;53.068;6.572;2024-02-21T10:09:22;9.10;99.90
54832;DHT22;40730;53.068;6.572;2024-02-21T10:11:49;9.10;99.90
54832;DHT22;40730;53.068;6.572;2024-02-21T10:14:16;9.20;99.90
54832;DHT22;40730;53.068;6.572;2024-02-21T10:16:41;9.20;99.90
54832;DHT22;40730;53.068;6.572;2024-02-21T10:19:19;9.20;99.90
54832;DHT22;40730;53.068;6.572;2024-02-21T10:21:57;9.30;99.90
54832;DHT22;40730;53.068;6.572;2024-02-21T10:24:29;9.40;99.90
54832;DHT22;40730;53.068;6.572;2024-02-21T10:27:01;9.30;99.90
54832;DHT22;40730;53.068;6.572;2024-02-21T10:29:27;9.30;99.90
54832;DHT22;40730;53.068;6.572;2024-02-21T10:34:32;9.40;99.90
54832;DHT22;40730;53.068;6.572;2024-02-21T10:37:05;9.50;99.90
54832;DHT22;40730;53.068;6.572;2024-02-21T10:39:39;9.50;99.90
54832;DHT22;40730;53.068;6.572;2024-02-21T10:42:05;9.50;99.90
54832;DHT22;40730;53.068;6.572;2024-02-21T10:44:37;9.60;99.90
54832;DHT22;40730;53.068;6.572;2024-02-21T10:47:08;9.50;99.90
54832;DHT22;40730;53.068;6.572;2024-02-21T10:49:41;9.60;99.90
54832;DHT22;40730;53.068;6.572;2024-02-21T10:54:56;9.70;99.90
54832;DHT22;40730;53.068;6.572;2024-02-21T10:57:22;9.70;99.90
54832;DHT22;40730;53.068;6.572;2024-02-21T10:59:48;9.70;99.90
54832;DHT22;40730;53.068;6.572;2024-02-21T11:02:15;9.90;99.90
54832;DHT22;40730;53.068;6.572;2024-02-21T11:04:42;10.00;99.90
54832;DHT22;40730;53.068;6.572;2024-02-21T11:07:08;10.10;99.90
54832;DHT22;40730;53.068;6.572;2024-02-21T11:09:34;10.10;99.90
54832;DHT22;40730;53.068;6.572;2024-02-21T11:12:04;10.10;99.90
54832;DHT22;40730;53.068;6.572;2024-02-21T11:14:31;10.20;99.90
54832;DHT22;40730;53.068;6.572;2024-02-21T11:17:18;10.30;99.90
54832;DHT22;40730;53.068;6.572;2024-02-21T11:19:44;10.30;99.90
54832;DHT22;40730;53.068;6.572;2024-02-21T11:22:17;10.30;99.90
54832;DHT22;40730;53.068;6.572;2024-02-21T11:24:43;10.30;99.90
54832;DHT22;40730;53.068;6.572;2024-02-21T11:27:13;10.20;99.90
54832;DHT22;40730;53.068;6.572;2024-02-21T11:29:46;10.20;99.90
54832;DHT22;40730;53.068;6.572;2024-02-21T11:32:16;10.20;99.90
54832;DHT22;40730;53.068;6.572;2024-02-21T11:34:57;10.10;99.90
54832;DHT22;40730;53.068;6.572;2024-02-21T11:37:27;10.00;99.90
54832;DHT22;40730;53.068;6.572;2024-02-21T11:39:53;10.00;99.90
54832;DHT22;40730;53.068;6.572;2024-02-21T11:42:18;9.90;99.90
54832;DHT22;40730;53.068;6.572;2024-02-21T11:44:45;9.90;99.90
54832;DHT22;40730;53.068;6.572;2024-02-21T11:47:11;9.80;99.90
54832;DHT22;40730;53.068;6.572;2024-02-21T11:49:38;9.80;99.90
54832;DHT22;40730;53.068;6.572;2024-02-21T11:52:05;9.90;99.90
54832;DHT22;40730;53.068;6.572;2024-02-21T11:54:31;9.80;99.90
54832;DHT22;40730;53.068;6.572;2024-02-21T11:56:57;9.80;99.90
54832;DHT22;40730;53.068;6.572;2024-02-21T11:59:23;9.80;99.90
54832;DHT22;40730;53.068;6.572;2024-02-21T12:01:48;9.70;99.90
54832;DHT22;40730;53.068;6.572;2024-02-21T12:04:15;9.80;99.90
54832;DHT22;40730;53.068;6.572;2024-02-21T12:06:44;9.80;99.90
54832;DHT22;40730;53.068;6.572;2024-02-21T12:09:10;9.70;99.90
54832;DHT22;40730;53.068;6.572;2024-02-21T12:11:39;9.70;99.90
54832;DHT22;40730;53.068;6.572;2024-02-21T12:14:04;9.70;99.90
54832;DHT22;40730;53.068;6.572;2024-02-21T12:16:31;9.70;99.90
54832;DHT22;40730;53.068;6.572;2024-02-21T12:18:58;9.70;99.90
54832;DHT22;40730;53.068;6.572;2024-02-21T12:21:31;9.70;99.90
54832;DHT22;40730;53.068;6.572;2024-02-21T12:23:58;9.70;99.90
54832;DHT22;40730;53.068;6.572;2024-02-21T12:26:24;9.80;99.90
54832;DHT22;40730;53.068;6.572;2024-02-21T12:28:51;9.70;99.90
54832;DHT22;40730;53.068;6.572;2024-02-21T12:31:16;9.80;99.90
54832;DHT22;40730;53.068;6.572;2024-02-21T12:33:43;9.80;99.90
54832;DHT22;40730;53.068;6.572;2024-02-21T12:36:08;9.90;99.90
54832;DHT22;40730;53.068;6.572;2024-02-21T12:38:35;10.10;99.90
54832;DHT22;40730;53.068;6.572;2024-02-21T12:41:01;9.90;99.90
54832;DHT22;40730;53.068;6.572;2024-02-21T12:43:27;10.00;99.90
54832;DHT22;40730;53.068;6.572;2024-02-21T12:45:52;10.00;99.90
54832;DHT22;40730;53.068;6.572;2024-02-21T12:48:18;10.00;99.90
54832;DHT22;40730;53.068;6.572;2024-02-21T12:50:50;10.00;99.90
54832;DHT22;40730;53.068;6.572;2024-02-21T12:53:20;10.00;99.90
54832;DHT22;40730;53.068;6.572;2024-02-21T12:55:50;10.00;99.90
54832;DHT22;40730;53.068;6.572;2024-02-21T12:58:16;10.00;99.90
54832;DHT22;40730;53.068;6.572;2024-02-21T13:00:41;9.90;99.90
54832;DHT22;40730;53.068;6.572;2024-02-21T13:03:14;9.90;99.90
54832;DHT22;40730;53.068;6.572;2024-02-21T13:05:39;9.90;99.90
54832;DHT22;40730;53.068;6.572;2024-02-21T13:08:14;9.90;99.90
54832;DHT22;40730;53.068;6.572;2024-02-21T13:10:40;9.90;99.90
54832;DHT22;40730;53.068;6.572;2024-02-21T13:13:05;9.90;99.90
54832;DHT22;40730;53.068;6.572;2024-02-21T13:15:31;9.90;99.90
54832;DHT22;40730;53.068;6.572;2024-02-21T13:17:57;10.00;99.90
54832;DHT22;40730;53.068;6.572;2024-02-21T13:20:25;10.00;99.90
54832;DHT22;40730;53.068;6.572;2024-02-21T13:22:51;10.10;99.90
54832;DHT22;40730;53.068;6.572;2024-02-21T13:25:16;10.00;99.90
54832;DHT22;40730;53.068;6.572;2024-02-21T13:27:45;10.10;99.90
54832;DHT22;40730;53.068;6.572;2024-02-21T13:30:11;10.00;99.90
54832;DHT22;40730;53.068;6.572;2024-02-21T13:32:38;10.00;99.90
54832;DHT22;40730;53.068;6.572;2024-02-21T13:35:04;10.10;99.90
54832;DHT22;40730;53.068;6.572;2024-02-21T13:37:31;10.20;99.90
54832;DHT22;40730;53.068;6.572;2024-02-21T13:39:57;10.10;99.90
54832;DHT22;40730;53.068;6.572;2024-02-21T13:42:22;10.20;99.90
54832;DHT22;40730;53.068;6.572;2024-02-21T13:44:49;10.20;99.90
54832;DHT22;40730;53.068;6.572;2024-02-21T13:47:15;10.20;99.90
54832;DHT22;40730;53.068;6.572;2024-02-21T13:49:41;10.20;99.90
54832;DHT22;40730;53.068;6.572;2024-02-21T13:52:07;10.20;99.90
54832;DHT22;40730;53.068;6.572;2024-02-21T13:54:34;10.10;99.90
54832;DHT22;40730;53.068;6.572;2024-02-21T13:57:00;10.20;99.90
54832;DHT22;40730;53.068;6.572;2024-02-21T13:59:27;10.10;99.90
54832;DHT22;40730;53.068;6.572;2024-02-21T14:01:53;10.10;99.90
54832;DHT22;40730;53.068;6.572;2024-02-21T14:04:19;10.10;99.90
54832;DHT22;40730;53.068;6.572;2024-02-21T14:06:45;10.10;99.90
54832;DHT22;40730;53.068;6.572;2024-02-21T14:09:14;10.10;99.90
54832;DHT22;40730;53.068;6.572;2024-02-21T14:11:40;10.00;99.90
54832;DHT22;40730;53.068;6.572;2024-02-21T14:14:07;10.00;99.90
54832;DHT22;40730;53.068;6.572;2024-02-21T14:16:33;9.90;99.90
54832;DHT22;40730;53.068;6.572;2024-02-21T14:18:59;9.90;99.90
54832;DHT22;40730;53.068;6.572;2024-02-21T14:21:24;9.80;99.90
54832;DHT22;40730;53.068;6.572;2024-02-21T14:23:51;10.00;99.90
54832;DHT22;40730;53.068;6.572;2024-02-21T14:26:18;9.80;99.90
54832;DHT22;40730;53.068;6.572;2024-02-21T14:28:44;9.70;99.90
54832;DHT22;40730;53.068;6.572;2024-02-21T14:31:09;9.80;99.90
54832;DHT22;40730;53.068;6.572;2024-02-21T14:33:36;9.70;99.90
54832;DHT22;40730;53.068;6.572;2024-02-21T14:36:02;9.70;99.90
54832;DHT22;40730;53.068;6.572;2024-02-21T14:38:30;9.70;99.90
54832;DHT22;40730;53.068;6.572;2024-02-21T14:40:55;9.70;99.90
54832;DHT22;40730;53.068;6.572;2024-02-21T14:43:21;9.70;99.90
54832;DHT22;40730;53.068;6.572;2024-02-21T14:45:47;9.70;99.90
54832;DHT22;40730;53.068;6.572;2024-02-21T14:48:13;9.60;99.90
54832;DHT22;40730;53.068;6.572;2024-02-21T14:50:39;9.60;99.90
54832;DHT22;40730;53.068;6.572;2024-02-21T14:53:05;9.60;99.90
54832;DHT22;40730;53.068;6.572;2024-02-21T14:55:30;9.60;99.90
54832;DHT22;40730;53.068;6.572;2024-02-21T14:57:56;9.50;99.90
54832;DHT22;40730;53.068;6.572;2024-02-21T15:00:21;9.60;99.90
54832;DHT22;40730;53.068;6.572;2024-02-21T15:02:55;9.60;99.90
54832;DHT22;40730;53.068;6.572;2024-02-21T15:05:21;9.60;99.90
54832;DHT22;40730;53.068;6.572;2024-02-21T15:07:47;9.50;99.90
54832;DHT22;40730;53.068;6.572;2024-02-21T15:10:12;9.60;99.90
54832;DHT22;40730;53.068;6.572;2024-02-21T15:12:38;9.60;99.90
54832;DHT22;40730;53.068;6.572;2024-02-21T15:15:04;9.50;99.90
54832;DHT22;40730;53.068;6.572;2024-02-21T15:17:29;9.50;99.90
54832;DHT22;40730;53.068;6.572;2024-02-21T15:19:55;9.50;99.90
54832;DHT22;40730;53.068;6.572;2024-02-21T15:22:21;9.50;99.90
54832;DHT22;40730;53.068;6.572;2024-02-21T15:24:48;9.60;99.90
54832;DHT22;40730;53.068;6.572;2024-02-21T15:27:14;9.60;99.90
54832;DHT22;40730;53.068;6.572;2024-02-21T15:29:40;9.50;99.90
54832;DHT22;40730;53.068;6.572;2024-02-21T15:32:06;9.50;99.90
54832;DHT22;40730;53.068;6.572;2024-02-21T15:34:32;9.50;99.90
54832;DHT22;40730;53.068;6.572;2024-02-21T15:36:57;9.50;99.90
54832;DHT22;40730;53.068;6.572;2024-02-21T15:39:23;9.50;99.90
54832;DHT22;40730;53.068;6.572;2024-02-21T15:41:50;9.50;99.90
54832;DHT22;40730;53.068;6.572;2024-02-21T15:44:16;9.50;99.90
54832;DHT22;40730;53.068;6.572;2024-02-21T15:46:41;9.50;99.90